createdAt,value
2018-09-29T00:00:28.083Z,4.87
2018-09-29T00:02:56.362Z,5.73
2018-09-29T00:05:24.497Z,5.17
2018-09-29T00:07:52.630Z,5.90
2018-09-29T00:10:20.797Z,5.30
2018-09-29T00:12:48.911Z,5.20
2018-09-29T00:15:17.028Z,5.20
2018-09-29T00:17:45.168Z,6.43
2018-09-29T00:20:13.286Z,6.53
2018-09-29T00:22:41.404Z,5.90
2018-09-29T00:25:09.718Z,5.03
2018-09-29T00:27:38.562Z,5.03
2018-09-29T00:30:07.369Z,5.53
2018-09-29T00:32:35.479Z,4.53
2018-09-29T00:35:03.621Z,5.07
2018-09-29T00:37:31.802Z,5.00
2018-09-29T00:39:59.897Z,5.20
2018-09-29T00:42:28.030Z,4.57
2018-09-29T00:44:56.139Z,4.40
2018-09-29T00:47:24.402Z,3.60
2018-09-29T00:49:52.587Z,3.97
2018-09-29T00:52:20.711Z,3.67
2018-09-29T00:54:48.833Z,3.70
2018-09-29T00:57:17.024Z,3.97
2018-09-29T00:59:45.288Z,3.50
2018-09-29T01:02:13.395Z,3.60
2018-09-29T01:04:41.518Z,4.03
2018-09-29T01:07:09.638Z,3.80
2018-09-29T01:09:37.838Z,3.80
2018-09-29T01:12:13.017Z,4.00
2018-09-29T01:14:41.141Z,3.23
2018-09-29T01:17:09.271Z,3.43
2018-09-29T01:19:37.383Z,3.40
2018-09-29T01:22:05.528Z,3.47
2018-09-29T01:24:33.655Z,2.63
2018-09-29T01:27:01.764Z,3.00
2018-09-29T01:29:29.938Z,2.60
2018-09-29T01:31:58.096Z,2.87
2018-09-29T01:34:26.474Z,3.23
2018-09-29T01:36:54.584Z,3.00
2018-09-29T01:39:22.838Z,3.40
2018-09-29T01:41:50.970Z,3.03
2018-09-29T01:44:19.082Z,3.00
2018-09-29T01:46:47.213Z,3.27
2018-09-29T01:49:15.359Z,3.37
2018-09-29T01:51:43.496Z,3.10
2018-09-29T01:54:11.646Z,3.00
2018-09-29T01:56:39.773Z,3.00
2018-09-29T01:59:07.913Z,3.23
2018-09-29T02:01:36.129Z,3.00
2018-09-29T02:04:04.287Z,3.00
2018-09-29T02:06:32.446Z,3.00
2018-09-29T02:09:00.575Z,3.03
2018-09-29T02:11:28.700Z,3.10
2018-09-29T02:13:56.801Z,2.50
2018-09-29T02:16:24.940Z,3.20
2018-09-29T02:18:53.042Z,2.70
2018-09-29T02:21:21.178Z,2.63
2018-09-29T02:23:49.285Z,2.77
2018-09-29T02:26:17.415Z,2.63
2018-09-29T02:28:45.610Z,2.80
2018-09-29T02:31:13.706Z,2.70
2018-09-29T02:33:42.015Z,2.50
2018-09-29T02:36:10.142Z,2.60
2018-09-29T02:38:38.265Z,2.63
2018-09-29T02:41:06.415Z,2.43
2018-09-29T02:43:34.560Z,2.77
2018-09-29T02:46:02.703Z,2.80
2018-09-29T02:48:30.806Z,2.60
2018-09-29T02:50:58.948Z,2.70
2018-09-29T02:53:27.059Z,2.10
2018-09-29T02:55:55.182Z,2.73
2018-09-29T02:58:23.337Z,2.37
2018-09-29T03:00:51.453Z,5.13
2018-09-29T03:03:19.598Z,5.37
2018-09-29T03:05:47.731Z,4.03
2018-09-29T03:08:15.848Z,4.10
2018-09-29T03:10:44.005Z,3.30
2018-09-29T03:13:12.128Z,2.73
2018-09-29T03:15:40.276Z,3.00
2018-09-29T03:18:08.387Z,2.97
2018-09-29T03:20:36.510Z,2.50
2018-09-29T03:23:04.740Z,2.53
2018-09-29T03:25:32.810Z,2.70
2018-09-29T03:28:00.967Z,2.73
2018-09-29T03:30:29.104Z,2.60
2018-09-29T03:32:57.235Z,2.47
2018-09-29T03:35:25.391Z,3.07
2018-09-29T03:37:53.555Z,2.83
2018-09-29T03:40:21.679Z,2.70
2018-09-29T03:42:49.806Z,2.73
2018-09-29T03:45:17.928Z,2.70
2018-09-29T03:47:46.063Z,2.90
2018-09-29T03:50:14.219Z,2.90
2018-09-29T03:52:42.383Z,2.97
2018-09-29T03:55:10.503Z,3.10
2018-09-29T03:57:38.665Z,2.97
2018-09-29T04:00:07.341Z,2.62
2018-09-29T04:02:35.491Z,3.00
2018-09-29T04:05:03.647Z,2.97
2018-09-29T04:07:31.788Z,3.30
2018-09-29T04:09:59.887Z,2.83
2018-09-29T04:12:28.016Z,2.70
2018-09-29T04:14:56.141Z,2.90
2018-09-29T04:17:24.287Z,3.07
2018-09-29T04:19:52.430Z,2.80
2018-09-29T04:22:20.565Z,3.00
2018-09-29T04:24:48.797Z,2.63
2018-09-29T04:27:16.871Z,2.80
2018-09-29T04:29:45.008Z,2.77
2018-09-29T04:32:13.152Z,2.77
2018-09-29T04:34:41.295Z,3.27
2018-09-29T04:37:09.403Z,2.63
2018-09-29T04:39:37.547Z,3.00
2018-09-29T04:42:05.687Z,2.80
2018-09-29T04:44:33.814Z,3.37
2018-09-29T04:47:01.949Z,3.27
2018-09-29T04:49:30.133Z,3.20
2018-09-29T04:51:58.260Z,3.00
2018-09-29T04:54:26.386Z,3.23
2018-09-29T04:56:54.517Z,2.87
2018-09-29T04:59:22.694Z,3.20
2018-09-29T05:01:50.805Z,3.00
2018-09-29T05:04:18.929Z,3.07
2018-09-29T05:06:47.055Z,2.70
2018-09-29T05:09:15.181Z,3.07
2018-09-29T05:11:43.319Z,2.93
2018-09-29T05:14:11.522Z,2.97
2018-09-29T05:16:39.636Z,2.90
2018-09-29T05:19:07.787Z,3.00
2018-09-29T05:21:35.952Z,2.90
2018-09-29T05:24:04.066Z,3.10
2018-09-29T05:26:32.190Z,3.30
2018-09-29T05:29:00.327Z,3.20
2018-09-29T05:31:28.456Z,3.07
2018-09-29T05:33:56.579Z,3.10
2018-09-29T05:36:24.710Z,3.00
2018-09-29T05:38:52.823Z,2.77
2018-09-29T05:41:20.967Z,3.30
2018-09-29T05:43:49.094Z,3.00
2018-09-29T05:46:17.213Z,3.13
2018-09-29T05:48:45.387Z,4.33
2018-09-29T05:51:13.507Z,6.83
2018-09-29T05:53:41.620Z,6.53
2018-09-29T05:56:09.750Z,7.90
2018-09-29T05:58:38.032Z,7.73
2018-09-29T06:01:06.164Z,9.17
2018-09-29T06:03:34.303Z,8.97
2018-09-29T06:06:02.431Z,9.30
2018-09-29T06:08:30.591Z,9.57
2018-09-29T06:10:58.704Z,10.67
2018-09-29T06:13:26.851Z,9.80
2018-09-29T06:15:54.989Z,10.07
2018-09-29T06:18:23.112Z,11.20
2018-09-29T06:20:51.259Z,11.07
2018-09-29T06:23:19.420Z,10.80
2018-09-29T06:25:47.557Z,10.40
2018-09-29T06:28:15.684Z,10.50
2018-09-29T06:30:43.803Z,11.00
2018-09-29T06:33:11.919Z,9.23
2018-09-29T06:35:40.059Z,10.37
2018-09-29T06:38:08.210Z,10.97
2018-09-29T06:40:36.787Z,12.77
2018-09-29T06:43:04.896Z,13.83
2018-09-29T06:45:33.015Z,14.07
2018-09-29T06:48:01.182Z,14.30
2018-09-29T06:50:29.362Z,14.90
2018-09-29T06:52:57.484Z,13.57
2018-09-29T06:55:25.665Z,13.47
2018-09-29T06:57:53.844Z,12.87
2018-09-29T07:00:22.009Z,13.00
2018-09-29T07:02:50.181Z,13.30
2018-09-29T07:05:18.283Z,15.57
2018-09-29T07:07:46.434Z,16.57
2018-09-29T07:10:14.574Z,16.13
2018-09-29T07:12:42.711Z,17.53
2018-09-29T07:15:10.832Z,16.90
2018-09-29T07:17:39.021Z,18.33
2018-09-29T07:20:07.317Z,18.48
2018-09-29T07:22:35.458Z,16.90
2018-09-29T07:25:03.608Z,16.93
2018-09-29T07:27:31.735Z,16.93
2018-09-29T07:29:59.910Z,19.10
2018-09-29T07:32:28.077Z,19.33
2018-09-29T07:34:56.197Z,18.43
2018-09-29T07:37:24.351Z,18.10
2018-09-29T07:39:52.487Z,20.23
2018-09-29T07:42:20.614Z,19.13
2018-09-29T07:44:48.743Z,18.43
2018-09-29T07:47:16.873Z,18.07
2018-09-29T07:49:45.012Z,18.97
2018-09-29T07:52:13.167Z,18.30
2018-09-29T07:54:41.322Z,17.43
2018-09-29T07:57:09.453Z,19.20
2018-09-29T07:59:37.621Z,18.30
2018-09-29T08:02:05.789Z,18.97
2018-09-29T08:04:33.915Z,18.77
2018-09-29T08:07:02.043Z,18.13
2018-09-29T08:09:30.195Z,15.97
2018-09-29T08:11:58.339Z,15.73
2018-09-29T08:14:26.528Z,16.33
2018-09-29T08:16:54.891Z,14.03
2018-09-29T08:19:23.033Z,13.10
2018-09-29T08:21:51.752Z,13.27
2018-09-29T08:24:19.898Z,12.60
2018-09-29T08:26:48.019Z,12.73
2018-09-29T08:29:16.150Z,12.97
2018-09-29T08:31:44.283Z,12.63
2018-09-29T08:34:12.502Z,11.47
2018-09-29T08:36:40.652Z,11.13
2018-09-29T08:39:09.578Z,11.53
2018-09-29T08:41:37.775Z,10.20
2018-09-29T08:44:05.939Z,10.43
2018-09-29T08:46:34.293Z,10.00
2018-09-29T08:49:02.445Z,10.00
2018-09-29T08:51:30.579Z,10.87
2018-09-29T08:53:58.715Z,10.07
2018-09-29T08:56:26.839Z,10.03
2018-09-29T08:58:54.969Z,8.67
2018-09-29T09:01:23.103Z,9.00
2018-09-29T09:03:51.293Z,8.67
2018-09-29T09:06:20.420Z,7.23
2018-09-29T09:08:48.600Z,7.47
2018-09-29T09:11:16.783Z,7.40
2018-09-29T09:13:44.926Z,6.50
2018-09-29T09:16:13.092Z,6.70
2018-09-29T09:18:41.251Z,6.77
2018-09-29T09:21:09.406Z,6.50
2018-09-29T09:23:37.585Z,6.50
2018-09-29T09:26:05.711Z,6.00
2018-09-29T09:28:33.863Z,6.03
2018-09-29T09:31:02.009Z,5.67
2018-09-29T09:33:30.128Z,5.83
2018-09-29T09:35:58.272Z,5.47
2018-09-29T09:38:26.450Z,5.70
2018-09-29T09:40:54.638Z,5.20
2018-09-29T09:43:22.793Z,5.30
2018-09-29T09:45:51.105Z,5.40
2018-09-29T09:48:19.228Z,4.80
2018-09-29T09:50:47.409Z,4.60
2018-09-29T09:53:15.543Z,4.40
2018-09-29T09:55:43.776Z,4.17
2018-09-29T09:58:11.894Z,3.70
2018-09-29T10:00:45.415Z,4.10
2018-09-29T10:03:19.030Z,4.23
2018-09-29T10:05:47.173Z,4.00
2018-09-29T10:08:15.299Z,4.53
2018-09-29T10:10:43.455Z,4.17
2018-09-29T10:13:11.578Z,3.37
2018-09-29T10:15:39.719Z,3.70
2018-09-29T10:18:07.879Z,3.43
2018-09-29T10:20:36.011Z,4.10
2018-09-29T10:23:04.179Z,3.73
2018-09-29T10:25:32.309Z,3.73
2018-09-29T10:28:00.464Z,3.30
2018-09-29T10:30:28.596Z,3.73
2018-09-29T10:32:56.743Z,3.57
2018-09-29T10:35:24.929Z,3.40
2018-09-29T10:37:53.238Z,2.90
2018-09-29T10:40:21.438Z,3.00
2018-09-29T10:42:49.697Z,3.57
2018-09-29T10:45:17.835Z,2.67
2018-09-29T10:47:45.957Z,2.50
2018-09-29T10:50:14.087Z,2.43
2018-09-29T10:52:42.266Z,2.40
2018-09-29T10:55:10.409Z,3.23
2018-09-29T10:57:38.767Z,3.00
2018-09-29T11:00:07.324Z,2.98
2018-09-29T11:02:35.577Z,2.90
2018-09-29T11:05:03.844Z,2.70
2018-09-29T11:07:31.905Z,2.47
2018-09-29T11:10:00.040Z,2.80
2018-09-29T11:12:28.185Z,2.60
2018-09-29T11:14:56.386Z,2.97
2018-09-29T11:17:24.567Z,3.30
2018-09-29T11:19:52.746Z,2.67
2018-09-29T11:22:21.120Z,2.77
2018-09-29T11:24:49.272Z,2.83
2018-09-29T11:27:17.415Z,2.60
2018-09-29T11:29:45.590Z,2.37
2018-09-29T11:32:13.884Z,3.13
2018-09-29T11:34:42.060Z,2.47
2018-09-29T11:37:10.241Z,2.40
2018-09-29T11:39:38.383Z,2.50
2018-09-29T11:42:06.551Z,2.43
2018-09-29T11:44:34.738Z,2.33
2018-09-29T11:47:02.901Z,2.37
2018-09-29T11:49:31.080Z,2.10
2018-09-29T11:51:59.527Z,1.80
2018-09-29T11:54:27.713Z,2.20
2018-09-29T11:56:55.879Z,2.03
2018-09-29T11:59:24.095Z,1.90
2018-09-29T12:01:52.396Z,1.93
2018-09-29T12:04:20.485Z,2.13
2018-09-29T12:06:48.803Z,2.13
2018-09-29T12:09:16.995Z,2.00
2018-09-29T12:11:45.124Z,2.10
2018-09-29T12:14:13.243Z,2.20
2018-09-29T12:16:41.367Z,1.93
2018-09-29T12:19:09.591Z,2.53
2018-09-29T12:21:37.765Z,1.90
2018-09-29T12:24:05.909Z,1.87
2018-09-29T12:26:34.126Z,2.20
2018-09-29T12:29:02.250Z,2.27
2018-09-29T12:31:30.448Z,2.10
2018-09-29T12:33:58.689Z,1.70
2018-09-29T12:36:26.887Z,2.23
2018-09-29T12:38:55.045Z,1.83
2018-09-29T12:41:23.236Z,1.90
2018-09-29T12:43:51.565Z,2.23
2018-09-29T12:46:19.835Z,2.00
2018-09-29T12:48:48.180Z,2.70
2018-09-29T12:51:16.611Z,1.63
2018-09-29T12:53:44.857Z,1.97
2018-09-29T12:56:13.152Z,2.30
2018-09-29T12:58:41.498Z,1.83
2018-09-29T13:01:09.886Z,2.37
2018-09-29T13:03:38.147Z,1.60
2018-09-29T13:06:06.349Z,2.60
2018-09-29T13:08:34.563Z,2.23
2018-09-29T13:11:02.812Z,1.67
2018-09-29T13:13:30.998Z,2.33
2018-09-29T13:15:59.214Z,2.20
2018-09-29T13:18:27.357Z,1.80
2018-09-29T13:20:55.609Z,1.43
2018-09-29T13:23:23.825Z,1.57
2018-09-29T13:25:52.158Z,2.10
2018-09-29T13:28:20.427Z,1.60
2018-09-29T13:30:48.879Z,1.73
2018-09-29T13:33:17.209Z,2.40
2018-09-29T13:35:45.544Z,2.73
2018-09-29T13:38:13.927Z,1.70
2018-09-29T13:40:42.378Z,1.60
2018-09-29T13:43:10.507Z,1.60
2018-09-29T13:45:38.757Z,2.30
2018-09-29T13:48:07.274Z,3.00
2018-09-29T13:50:35.708Z,1.90
2018-09-29T13:53:04.021Z,1.50
2018-09-29T13:55:32.334Z,2.47
2018-09-29T13:58:00.479Z,1.60
2018-09-29T14:00:28.611Z,1.83
2018-09-29T14:02:56.806Z,2.10
2018-09-29T14:05:24.976Z,1.80
2018-09-29T14:07:53.276Z,1.63
2018-09-29T14:10:21.516Z,1.90
2018-09-29T14:12:50.122Z,1.80
2018-09-29T14:15:18.528Z,1.60
2018-09-29T14:17:46.849Z,1.70
2018-09-29T14:20:15.086Z,1.70
2018-09-29T14:22:43.255Z,2.00
2018-09-29T14:25:11.533Z,1.93
2018-09-29T14:27:39.847Z,1.73
2018-09-29T14:30:08.099Z,1.60
2018-09-29T14:32:36.225Z,1.53
2018-09-29T14:35:04.956Z,1.50
2018-09-29T14:37:34.091Z,1.67
2018-09-29T14:42:45.373Z,1.60
2018-09-29T14:45:13.835Z,1.57
2018-09-29T14:47:42.327Z,1.50
2018-09-29T14:50:10.774Z,1.20
2018-09-29T14:52:39.376Z,1.80
2018-09-29T14:55:07.879Z,1.40
2018-09-29T14:57:36.278Z,1.67
2018-09-29T15:00:04.669Z,1.50
2018-09-29T15:02:33.301Z,2.00
2018-09-29T15:05:01.647Z,1.43
2018-09-29T15:07:30.156Z,1.50
2018-09-29T15:09:58.450Z,1.50
2018-09-29T15:12:26.847Z,1.53
2018-09-29T15:14:55.103Z,2.20
2018-09-29T15:17:23.429Z,1.20
2018-09-29T15:19:51.930Z,1.70
2018-09-29T15:22:20.317Z,1.57
2018-09-29T15:24:48.556Z,1.30
2018-09-29T15:27:16.755Z,1.30
2018-09-29T15:29:45.004Z,1.70
2018-09-29T15:32:13.303Z,1.57
2018-09-29T15:34:41.523Z,1.70
2018-09-29T15:37:09.857Z,1.50
2018-09-29T15:39:38.405Z,1.83
2018-09-29T15:42:06.633Z,1.90
2018-09-29T15:44:34.991Z,1.27
2018-09-29T15:47:03.475Z,1.53
2018-09-29T15:49:31.791Z,1.70
2018-09-29T15:52:00.194Z,1.50
2018-09-29T15:54:28.635Z,1.30
2018-09-29T15:56:56.974Z,1.37
2018-09-29T15:59:25.319Z,1.67
2018-09-29T16:01:53.601Z,1.20
2018-09-29T16:04:22.352Z,1.70
2018-09-29T16:06:50.770Z,1.67
2018-09-29T16:09:19.669Z,1.20
2018-09-29T16:11:47.993Z,1.30
2018-09-29T16:14:16.527Z,1.53
2018-09-29T16:16:45.187Z,1.50
2018-09-29T16:19:13.588Z,1.23
2018-09-29T16:21:55.386Z,1.43
2018-09-29T16:24:23.852Z,1.20
2018-09-29T16:26:52.302Z,1.33
2018-09-29T16:29:20.718Z,1.73
2018-09-29T16:31:49.221Z,1.50
2018-09-29T16:34:17.530Z,1.30
2018-09-29T16:36:45.837Z,1.53
2018-09-29T16:39:14.553Z,1.47
2018-09-29T16:41:43.199Z,1.67
2018-09-29T16:44:11.580Z,1.40
2018-09-29T16:46:40.048Z,1.57
2018-09-29T16:49:08.359Z,1.50
2018-09-29T16:51:36.777Z,1.20
2018-09-29T16:54:05.234Z,1.80
2018-09-29T16:56:33.773Z,1.20
2018-09-29T16:59:02.339Z,2.10
2018-09-29T17:01:30.843Z,5.90
2018-09-29T17:03:59.400Z,5.80
2018-09-29T17:06:27.745Z,6.10
2018-09-29T17:08:56.212Z,3.70
2018-09-29T17:11:24.656Z,2.43
2018-09-29T17:13:52.988Z,3.73
2018-09-29T17:16:21.263Z,3.40
2018-09-29T17:18:49.872Z,2.30
2018-09-29T17:21:18.083Z,2.80
2018-09-29T17:23:46.324Z,4.30
2018-09-29T17:26:20.999Z,7.00
2018-09-29T17:28:49.358Z,6.80
2018-09-29T17:31:17.669Z,8.37
2018-09-29T17:33:46.019Z,6.77
2018-09-29T17:36:14.399Z,6.40
2018-09-29T17:38:42.834Z,5.23
2018-09-29T17:41:11.201Z,4.87
2018-09-29T17:43:39.495Z,5.40
2018-09-29T17:46:07.913Z,6.33
2018-09-29T17:48:36.367Z,19.63
2018-09-29T17:51:04.890Z,7.50
2018-09-29T17:53:33.227Z,9.83
2018-09-29T17:56:01.704Z,7.27
2018-09-29T17:58:30.348Z,4.63
2018-09-29T18:00:58.765Z,13.00
2018-09-29T18:03:27.212Z,5.03
2018-09-29T18:05:55.636Z,9.17
2018-09-29T18:08:24.026Z,8.90
2018-09-29T18:10:52.404Z,4.97
2018-09-29T18:13:20.597Z,7.50
2018-09-29T18:15:48.982Z,5.00
2018-09-29T18:18:17.351Z,9.50
2018-09-29T18:20:45.723Z,14.47
2018-09-29T18:23:14.121Z,34.73
2018-09-29T18:25:42.385Z,20.53
2018-09-29T18:28:10.667Z,10.53
2018-09-29T18:30:38.901Z,15.30
2018-09-29T18:33:07.101Z,14.10
2018-09-29T18:35:35.381Z,10.10
2018-09-29T18:38:03.630Z,8.50
2018-09-29T18:40:31.907Z,11.47
2018-09-29T18:43:00.305Z,9.27
2018-09-29T18:45:28.576Z,11.43
2018-09-29T18:47:57.178Z,9.13
2018-09-29T18:50:25.450Z,12.43
2018-09-29T18:52:53.696Z,9.33
2018-09-29T18:55:22.200Z,10.27
2018-09-29T18:57:50.391Z,9.73
2018-09-29T19:00:20.161Z,6.93
2018-09-29T19:02:48.278Z,8.77
2018-09-29T19:05:16.478Z,6.60
2018-09-29T19:07:44.670Z,7.83
2018-09-29T19:10:12.907Z,8.97
2018-09-29T19:12:41.394Z,5.40
2018-09-29T19:15:09.599Z,5.57
2018-09-29T19:17:38.125Z,8.47
2018-09-29T19:20:07.242Z,8.73
2018-09-29T19:22:35.407Z,9.60
2018-09-29T19:25:03.841Z,6.77
2018-09-29T19:27:32.219Z,5.23
2018-09-29T19:30:00.555Z,9.00
2018-09-29T19:32:28.841Z,12.27
2018-09-29T19:34:57.128Z,6.60
2018-09-29T19:37:25.591Z,8.93
2018-09-29T19:39:54.010Z,6.10
2018-09-29T19:42:22.294Z,5.40
2018-09-29T19:44:50.447Z,10.67
2018-09-29T19:47:18.742Z,11.00
2018-09-29T19:49:46.918Z,13.00
2018-09-29T19:52:15.090Z,13.73
2018-09-29T19:54:43.394Z,17.57
2018-09-29T19:57:11.525Z,14.67
2018-09-29T19:59:39.908Z,15.23
2018-09-29T20:02:08.086Z,14.13
2018-09-29T20:04:36.337Z,12.23
2018-09-29T20:07:04.475Z,13.43
2018-09-29T20:09:32.812Z,14.23
2018-09-29T20:12:01.262Z,18.13
2018-09-29T20:14:29.419Z,21.43
2018-09-29T20:16:57.663Z,21.80
2018-09-29T20:19:25.992Z,22.20
2018-09-29T20:21:54.189Z,26.57
2018-09-29T20:24:22.613Z,23.33
2018-09-29T20:26:50.744Z,19.00
2018-09-29T20:29:19.035Z,12.60
2018-09-29T20:31:47.226Z,11.80
2018-09-29T20:34:15.611Z,12.53
2018-09-29T20:36:43.779Z,14.47
2018-09-29T20:39:24.195Z,14.80
2018-09-29T20:41:52.544Z,12.70
2018-09-29T20:44:20.955Z,17.57
2018-09-29T20:46:49.309Z,14.57
2018-09-29T20:49:17.469Z,12.73
2018-09-29T20:51:45.714Z,11.60
2018-09-29T20:54:13.909Z,12.87
2018-09-29T20:56:42.292Z,13.60
2018-09-29T20:59:10.455Z,9.20
2018-09-29T21:01:38.884Z,12.90
2018-09-29T21:04:07.183Z,9.30
2018-09-29T21:06:35.373Z,8.40
2018-09-29T21:09:04.111Z,9.03
2018-09-29T21:11:32.444Z,9.87
2018-09-29T21:14:00.613Z,8.40
2018-09-29T21:16:28.843Z,7.50
2018-09-29T21:18:57.001Z,6.83
2018-09-29T21:21:25.360Z,7.33
2018-09-29T21:23:53.567Z,9.53
2018-09-29T21:26:21.743Z,7.27
2018-09-29T21:28:49.868Z,6.23
2018-09-29T21:31:18.094Z,7.03
2018-09-29T21:33:46.268Z,6.20
2018-09-29T21:36:14.399Z,5.80
2018-09-29T21:38:42.557Z,6.73
2018-09-29T21:41:10.802Z,6.70
2018-09-29T21:43:38.943Z,6.53
2018-09-29T21:46:07.139Z,7.87
2018-09-29T21:48:35.443Z,7.20
2018-09-29T21:51:03.598Z,6.57
2018-09-29T21:53:31.771Z,6.27
2018-09-29T21:55:59.899Z,6.40
2018-09-29T21:58:28.119Z,4.50
2018-09-29T22:01:00.591Z,5.30
2018-09-29T22:03:28.714Z,4.63
2018-09-29T22:05:56.901Z,4.10
2018-09-29T22:08:25.092Z,3.83
2018-09-29T22:10:53.212Z,4.10
2018-09-29T22:13:21.379Z,3.80
2018-09-29T22:15:49.604Z,4.23
2018-09-29T22:18:17.734Z,4.27
2018-09-29T22:20:45.888Z,3.77
2018-09-29T22:23:14.023Z,4.07
2018-09-29T22:25:42.403Z,4.50
2018-09-29T22:28:10.519Z,4.33
2018-09-29T22:30:38.632Z,4.40
2018-09-29T22:33:06.948Z,3.90
2018-09-29T22:35:35.055Z,4.43
2018-09-29T22:38:03.196Z,4.40
2018-09-29T22:40:31.348Z,6.03
2018-09-29T22:42:59.481Z,5.07
2018-09-29T22:45:27.608Z,4.50
2018-09-29T22:47:55.761Z,4.00
2018-09-29T22:50:23.958Z,4.23
2018-09-29T22:52:52.220Z,4.73
2018-09-29T22:55:20.339Z,5.10
2018-09-29T22:57:48.522Z,4.23
2018-09-29T23:00:16.621Z,4.47
2018-09-29T23:02:44.724Z,4.10
2018-09-29T23:05:12.828Z,3.70
2018-09-29T23:07:40.982Z,3.80
2018-09-29T23:10:09.162Z,4.00
2018-09-29T23:12:37.309Z,3.87
2018-09-29T23:15:05.419Z,3.63
2018-09-29T23:17:33.579Z,4.83
2018-09-29T23:20:01.711Z,4.30
2018-09-29T23:22:29.980Z,3.70
2018-09-29T23:24:58.098Z,3.60
2018-09-29T23:27:26.377Z,3.33
2018-09-29T23:29:54.466Z,3.70
2018-09-29T23:32:22.625Z,3.83
2018-09-29T23:34:50.912Z,4.00
2018-09-29T23:37:19.093Z,4.10
2018-09-29T23:39:47.158Z,3.90
2018-09-29T23:42:15.310Z,4.23
2018-09-29T23:44:43.428Z,3.80
2018-09-29T23:47:11.564Z,3.80
2018-09-29T23:49:39.712Z,3.63
2018-09-29T23:52:07.883Z,3.70
2018-09-29T23:54:36.135Z,3.83
2018-09-29T23:57:04.187Z,3.63
2018-09-29T23:59:32.311Z,3.77
